Time;durP1;ratioP1;P1;durP2;ratioP2;P2;SDS_P1;SDS_P2;PMS_P1;PMS_P2;Temp;Humidity;BMP_temperature;BMP_pressure;BME280_temperature;BME280_humidity;BME280_pressure;Samples;Min_cycle;Max_cycle;Signal;HPM_P1;HPM_P2
2021/01/24 00:00:50;;;;;;;7.30;4.03;;;;;;;4.38;100.00;99841.23;1803439;79;21013;-72
2021/01/24 00:03:18;;;;;;;6.70;3.30;;;;;;;4.40;100.00;99854.99;1828414;78;21242;-73
2021/01/24 00:05:47;;;;;;;6.00;3.00;;;;;;;4.40;100.00;99850.48;1803512;79;21008;-72
2021/01/24 00:08:15;;;;;;;9.63;3.17;;;;;;;4.42;100.00;99853.86;1828407;78;21301;-73
2021/01/24 00:10:43;;;;;;;4.17;2.83;;;;;;;4.45;100.00;99837.53;1757969;79;21044;-72
2021/01/24 00:13:11;;;;;;;6.03;2.87;;;;;;;4.50;100.00;99846.50;1771731;81;21548;-72
2021/01/24 00:15:38;;;;;;;8.37;3.60;;;;;;;4.53;100.00;99845.73;1755266;81;20893;-72
2021/01/24 00:18:07;;;;;;;5.50;3.10;;;;;;;4.52;100.00;99843.19;1771771;81;21595;-72
2021/01/24 00:20:35;;;;;;;5.67;2.97;;;;;;;4.53;100.00;99834.16;1755195;81;21603;-74
2021/01/24 00:23:03;;;;;;;6.03;2.97;;;;;;;4.51;100.00;99831.61;1771624;81;21030;-74
2021/01/24 00:25:31;;;;;;;6.07;3.87;;;;;;;4.50;100.00;99825.08;1758182;80;21115;-73
2021/01/24 00:27:59;;;;;;;3.30;2.53;;;;;;;4.48;100.00;99825.69;1789993;80;20998;-73
2021/01/24 00:30:27;;;;;;;7.17;3.27;;;;;;;4.45;100.00;99819.29;1790199;80;21465;-72
2021/01/24 00:32:55;;;;;;;4.20;2.80;;;;;;;4.43;100.00;99823.94;1789829;79;21064;-74
2021/01/24 00:35:23;;;;;;;3.47;2.60;;;;;;;4.41;100.00;99815.17;1813441;79;21033;-73
2021/01/24 00:37:53;;;;;;;8.20;3.20;;;;;;;4.40;100.00;99815.67;1822290;78;21638;-73
2021/01/24 00:40:21;;;;;;;4.90;2.87;;;;;;;4.35;100.00;99804.02;1813388;79;20919;-74
2021/01/24 00:42:49;;;;;;;5.57;2.80;;;;;;;4.34;100.00;99808.20;1813403;79;21160;-73
2021/01/24 00:45:17;;;;;;;4.50;2.63;;;;;;;4.34;100.00;99811.72;1822342;78;22093;-72
2021/01/24 00:47:45;;;;;;;4.17;2.60;;;;;;;4.35;100.00;99813.89;1813242;79;20997;-73
2021/01/24 00:50:14;;;;;;;4.40;2.70;;;;;;;4.32;100.00;99810.14;1822292;78;21033;-72
2021/01/24 00:52:44;;;;;;;4.30;3.07;;;;;;;4.28;100.00;99800.70;1813421;79;21053;-73
2021/01/24 00:55:12;;;;;;;3.83;2.60;;;;;;;4.24;100.00;99805.98;1822416;78;21423;-73
2021/01/24 00:57:40;;;;;;;5.10;3.00;;;;;;;4.17;100.00;99805.17;1813342;79;21573;-74
2021/01/24 01:00:10;;;;;;;4.67;3.10;;;;;;;4.15;100.00;99801.79;1789970;80;20990;-73
2021/01/24 01:02:38;;;;;;;3.90;2.87;;;;;;;4.12;100.00;99800.72;1822168;78;21049;-72
2021/01/24 01:05:08;;;;;;;3.70;2.80;;;;;;;4.12;100.00;99805.23;1813488;79;21105;-73
2021/01/24 01:07:35;;;;;;;4.03;2.60;;;;;;;4.09;100.00;99798.80;1813565;79;20982;-73
2021/01/24 01:10:05;;;;;;;4.63;2.70;;;;;;;4.09;100.00;99802.81;1822373;78;21761;-73
2021/01/24 01:12:33;;;;;;;3.00;2.23;;;;;;;4.08;100.00;99799.80;1813497;79;21029;-73
2021/01/24 01:15:00;;;;;;;5.37;3.13;;;;;;;4.07;100.00;99798.97;1822404;77;20958;-73
2021/01/24 01:17:29;;;;;;;4.37;2.80;;;;;;;4.06;100.00;99793.24;1813418;79;21587;-73
2021/01/24 01:19:58;;;;;;;4.03;2.37;;;;;;;4.03;100.00;99796.18;1822400;78;21033;-73
2021/01/24 01:22:25;;;;;;;5.73;3.17;;;;;;;4.04;100.00;99795.68;1813416;79;21292;-71
2021/01/24 01:24:53;;;;;;;4.90;2.57;;;;;;;4.04;100.00;99800.56;1821282;77;21006;-72
2021/01/24 01:27:21;;;;;;;5.27;2.87;;;;;;;4.05;100.00;99799.56;1800093;79;20955;-72
2021/01/24 01:29:49;;;;;;;4.33;2.87;;;;;;;4.06;100.00;99803.11;1797512;79;20947;-73
2021/01/24 01:32:17;;;;;;;3.80;2.73;;;;;;;4.07;100.00;99806.99;1774848;79;20999;-74
2021/01/24 01:34:45;;;;;;;4.57;2.83;;;;;;;4.11;100.00;99805.73;1790134;80;21193;-72
2021/01/24 01:37:13;;;;;;;3.80;2.63;;;;;;;4.16;100.00;99806.64;1784194;79;21042;-73
2021/01/24 01:39:41;;;;;;;5.63;3.03;;;;;;;4.21;100.00;99804.41;1822438;78;20922;-73
2021/01/24 01:42:13;;;;;;;6.07;2.70;;;;;;;4.24;100.00;99806.82;1821983;78;20975;-72
2021/01/24 01:44:42;;;;;;;4.00;2.80;;;;;;;4.28;100.00;99799.36;1822580;78;21023;-73
2021/01/24 01:47:11;;;;;;;5.70;3.47;;;;;;;4.33;100.00;99801.14;1822411;78;21366;-72
2021/01/24 01:49:39;;;;;;;6.07;3.37;;;;;;;4.37;100.00;99802.55;1822435;78;20923;-73
2021/01/24 01:52:06;;;;;;;5.17;3.00;;;;;;;4.40;100.00;99801.45;1822430;78;20986;-71
2021/01/24 01:54:35;;;;;;;5.67;2.40;;;;;;;4.42;100.00;99808.84;1822365;78;21113;-72
2021/01/24 01:57:02;;;;;;;7.67;3.50;;;;;;;4.46;100.00;99808.91;1822260;78;21686;-72
2021/01/24 01:59:30;;;;;;;3.77;2.60;;;;;;;4.49;100.00;99806.81;1822463;78;21646;-73
2021/01/24 02:02:25;;;;;;;5.63;2.63;;;;;;;4.54;100.00;99808.59;1822366;78;21010;-73
2021/01/24 02:05:20;;;;;;;2.60;2.30;;;;;;;4.59;100.00;99810.02;1817739;78;20986;-73
2021/01/24 02:08:05;;;;;;;2.62;2.42;;;;;;;4.63;100.00;99810.92;1822585;78;21738;-72
2021/01/24 02:10:50;;;;;;;3.73;2.13;;;;;;;4.64;100.00;99812.64;1822419;78;21587;-73
2021/01/24 02:13:35;;;;;;;3.97;2.70;;;;;;;4.68;100.00;99806.51;1820889;78;21544;-73
2021/01/24 02:16:03;;;;;;;5.07;3.23;;;;;;;4.69;100.00;99808.19;1822411;78;20983;-73
2021/01/24 02:18:33;;;;;;;5.17;3.50;;;;;;;4.72;100.00;99814.61;1791173;78;21041;-72
2021/01/24 02:21:18;;;;;;;5.50;2.53;;;;;;;4.73;100.00;99811.80;1822386;78;21026;-74
2021/01/24 02:23:46;;;;;;;4.53;2.90;;;;;;;4.76;100.00;99809.32;1817997;78;20986;-73
2021/01/24 02:26:38;;;;;;;4.47;2.80;;;;;;;4.80;100.00;99807.20;1812966;78;22521;-74
2021/01/24 02:29:38;;;;;;;3.07;2.17;;;;;;;4.82;100.00;99812.80;1812615;79;20996;-73
2021/01/24 02:32:06;;;;;;;4.57;2.13;;;;;;;4.83;100.00;99809.11;1811287;78;21022;-74
2021/01/24 02:34:36;;;;;;;3.00;1.93;;;;;;;4.84;100.00;99803.28;1805978;79;20986;-73
2021/01/24 02:37:04;;;;;;;5.00;3.00;;;;;;;4.86;100.00;99804.82;1777058;79;20986;-73
2021/01/24 02:39:32;;;;;;;3.63;2.30;;;;;;;4.85;100.00;99811.19;1777155;79;21340;-72
2021/01/24 02:42:01;;;;;;;2.03;1.83;;;;;;;4.86;100.00;99805.33;1806133;79;21136;-72
2021/01/24 02:44:29;;;;;;;6.43;3.20;;;;;;;4.85;100.00;99807.16;1806192;79;20931;-74
2021/01/24 02:46:57;;;;;;;3.57;2.40;;;;;;;4.86;100.00;99800.80;1806000;79;21021;-74
2021/01/24 02:49:28;;;;;;;5.27;2.90;;;;;;;4.86;100.00;99798.62;1777149;79;21022;-73
2021/01/24 02:51:57;;;;;;;3.13;2.33;;;;;;;4.86;100.00;99798.62;1777698;79;21197;-73
2021/01/24 02:54:26;;;;;;;4.23;2.20;;;;;;;4.86;100.00;99799.97;1777177;79;20990;-73
2021/01/24 02:56:54;;;;;;;3.47;2.63;;;;;;;4.84;100.00;99801.94;1777381;79;21598;-71
2021/01/24 02:59:22;;;;;;;5.37;2.57;;;;;;;4.85;100.00;99804.95;1806008;79;20978;-73
2021/01/24 03:01:50;;;;;;;4.33;2.67;;;;;;;4.85;100.00;99799.12;1777164;79;21054;-73
2021/01/24 03:04:18;;;;;;;3.40;2.60;;;;;;;4.83;100.00;99805.09;1806117;79;21058;-73
2021/01/24 03:06:46;;;;;;;3.10;2.17;;;;;;;4.80;100.00;99806.73;1806049;79;20999;-73
2021/01/24 03:09:14;;;;;;;4.57;2.63;;;;;;;4.80;100.00;99808.08;1806024;79;20938;-72
2021/01/24 03:11:45;;;;;;;2.80;2.17;;;;;;;4.80;100.00;99812.09;1806084;79;20930;-73
2021/01/24 03:14:18;;;;;;;4.90;2.70;;;;;;;4.81;100.00;99808.91;1806023;79;21201;-72
2021/01/24 03:16:48;;;;;;;4.70;3.20;;;;;;;4.80;100.00;99806.73;1806112;79;21532;-72
2021/01/24 03:19:19;;;;;;;4.13;2.70;;;;;;;4.81;100.00;99799.53;1805973;79;21021;-73
2021/01/24 03:21:48;;;;;;;5.27;2.53;;;;;;;4.79;100.00;99805.03;1773673;80;21012;-73
2021/01/24 03:24:17;;;;;;;3.93;2.63;;;;;;;4.79;100.00;99801.52;1773613;80;21087;-72
2021/01/24 03:26:45;;;;;;;6.40;2.30;;;;;;;4.81;100.00;99804.89;1762487;80;21009;-72
2021/01/24 03:29:14;;;;;;;3.50;2.30;;;;;;;4.78;100.00;99804.70;1812145;79;21873;-73
2021/01/24 03:31:42;;;;;;;4.00;2.63;;;;;;;4.76;100.00;99799.94;1814528;78;21017;-73
2021/01/24 03:34:19;;;;;;;4.07;2.10;;;;;;;4.72;100.00;99803.39;1817724;79;20929;-73
2021/01/24 03:36:54;;;;;;;2.77;1.87;;;;;;;4.72;100.00;99790.00;1845317;76;26251;-71
2021/01/24 03:39:22;;;;;;;3.43;2.10;;;;;;;4.65;100.00;99794.22;1815488;78;20969;-72
2021/01/24 03:41:50;;;;;;;6.43;2.90;;;;;;;4.62;100.00;99793.19;1815417;79;21656;-71
2021/01/24 03:44:18;;;;;;;4.13;2.30;;;;;;;4.60;100.00;99792.45;1815245;78;20988;-73
2021/01/24 03:46:46;;;;;;;3.83;2.70;;;;;;;4.60;100.00;99794.30;1815370;79;20980;-72
2021/01/24 03:49:14;;;;;;;6.77;2.60;;;;;;;4.58;100.00;99799.78;1815405;79;20913;-71
2021/01/24 03:51:44;;;;;;;6.60;3.10;;;;;;;4.56;100.00;99801.75;1815317;79;21028;-73
2021/01/24 03:54:12;;;;;;;5.23;2.80;;;;;;;4.54;100.00;99802.39;1815378;79;21633;-74
2021/01/24 03:56:40;;;;;;;9.17;3.93;;;;;;;4.55;100.00;99810.77;1815332;79;21577;-72
2021/01/24 03:59:08;;;;;;;9.13;4.27;;;;;;;4.56;100.00;99805.27;1815324;79;21011;-73
2021/01/24 04:01:36;;;;;;;10.70;4.97;;;;;;;4.56;100.00;99807.95;1815417;78;21043;-74
2021/01/24 04:04:05;;;;;;;12.77;4.67;;;;;;;4.58;100.00;99803.80;1815391;79;21040;-73
2021/01/24 04:06:33;;;;;;;11.20;5.00;;;;;;;4.56;100.00;99806.61;1815328;79;22666;-73
2021/01/24 04:09:01;;;;;;;8.20;4.17;;;;;;;4.57;100.00;99803.47;1815379;78;20954;-72
2021/01/24 04:11:30;;;;;;;12.93;5.20;;;;;;;4.58;100.00;99815.02;1815430;79;21007;-73
2021/01/24 04:13:58;;;;;;;10.60;4.53;;;;;;;4.58;100.00;99807.81;1815290;79;20985;-72
2021/01/24 04:16:25;;;;;;;11.47;5.00;;;;;;;4.54;100.00;99812.60;1815425;77;21450;-73
2021/01/24 04:18:54;;;;;;;10.67;5.20;;;;;;;4.53;100.00;99809.59;1815303;79;21644;-72
2021/01/24 04:21:22;;;;;;;12.10;4.77;;;;;;;4.52;100.00;99805.20;1815170;79;20984;-73
2021/01/24 04:23:50;;;;;;;12.27;4.60;;;;;;;4.50;100.00;99802.33;1815346;79;20992;-73
2021/01/24 04:26:18;;;;;;;11.70;5.20;;;;;;;4.49;100.00;99803.30;1807778;79;21004;-72
2021/01/24 04:28:45;;;;;;;10.47;4.47;;;;;;;4.46;100.00;99800.41;1797358;79;21466;-72
2021/01/24 04:31:14;;;;;;;14.10;5.33;;;;;;;4.42;100.00;99792.78;1801190;78;21356;-72
2021/01/24 04:33:42;;;;;;;10.03;3.97;;;;;;;4.40;100.00;99800.11;1747026;82;20934;-72
2021/01/24 04:36:10;;;;;;;7.63;3.90;;;;;;;4.36;100.00;99794.19;1769639;81;20966;-73
2021/01/24 04:38:37;;;;;;;11.70;4.47;;;;;;;4.35;100.00;99795.99;1769685;81;22397;-73
2021/01/24 04:41:06;;;;;;;10.73;4.50;;;;;;;4.36;100.00;99800.88;1769830;81;21598;-73
2021/01/24 04:43:34;;;;;;;10.80;5.17;;;;;;;4.34;100.00;99792.98;1769676;81;21044;-74
2021/01/24 04:46:02;;;;;;;15.00;6.17;;;;;;;4.34;100.00;99800.17;1718492;82;21038;-73
2021/01/24 04:48:30;;;;;;;15.87;6.97;;;;;;;4.34;100.00;99792.14;1769140;81;21565;-72
2021/01/24 04:50:58;;;;;;;11.60;4.87;;;;;;;4.33;100.00;99795.79;1769177;81;20992;-73
2021/01/24 04:53:26;;;;;;;12.97;5.17;;;;;;;4.33;100.00;99807.34;1746687;82;21002;-73
2021/01/24 04:55:53;;;;;;;11.47;5.10;;;;;;;4.33;100.00;99813.19;1769093;81;21211;-73
2021/01/24 04:58:22;;;;;;;12.73;4.17;;;;;;;4.30;100.00;99798.73;1746571;82;20958;-72
2021/01/24 05:00:49;;;;;;;5.40;2.97;;;;;;;4.26;100.00;99822.25;1747332;80;21554;-72
2021/01/24 05:03:17;;;;;;;6.57;3.17;;;;;;;4.22;100.00;99818.66;1746468;82;21009;-72
2021/01/24 05:05:45;;;;;;;3.20;2.37;;;;;;;4.18;100.00;99807.38;1746678;81;21519;-72
2021/01/24 05:08:15;;;;;;;5.67;3.13;;;;;;;4.13;100.00;99805.09;1746551;82;21365;-72
2021/01/24 05:10:46;;;;;;;4.57;2.30;;;;;;;4.08;100.00;99804.66;1717676;82;20990;-71
2021/01/24 05:13:20;;;;;;;4.03;2.13;;;;;;;4.04;100.00;99808.59;1746645;82;21523;-71
2021/01/24 05:15:48;;;;;;;3.83;2.27;;;;;;;4.01;100.00;99808.02;1739405;82;20998;-73
2021/01/24 05:18:16;;;;;;;4.50;2.23;;;;;;;3.97;100.00;99822.16;1746633;82;21539;-72
2021/01/24 05:20:43;;;;;;;4.93;2.50;;;;;;;3.94;100.00;99817.06;1746673;82;21574;-73
2021/01/24 05:23:12;;;;;;;4.33;2.67;;;;;;;3.90;100.00;99819.66;1746446;82;21018;-72
2021/01/24 05:25:40;;;;;;;3.10;1.80;;;;;;;3.86;100.00;99813.73;1692267;82;20989;-72
2021/01/24 05:28:24;;;;;;;2.37;2.10;;;;;;;3.83;100.00;99813.98;1771631;81;20976;-72
2021/01/24 05:31:03;;;;;;;4.80;2.33;;;;;;;3.81;100.00;99819.96;1770873;81;20980;-72
2021/01/24 05:33:31;;;;;;;4.20;2.80;;;;;;;3.77;100.00;99815.84;1764446;81;21737;-71
2021/01/24 05:35:59;;;;;;;6.03;3.17;;;;;;;3.75;100.00;99817.33;1763755;80;21053;-71
2021/01/24 05:38:31;;;;;;;2.73;2.53;;;;;;;3.74;100.00;99822.31;1746657;82;21607;-73
2021/01/24 05:41:02;;;;;;;2.83;1.77;;;;;;;3.71;100.00;99811.88;1769766;80;21167;-72
2021/01/24 05:43:36;;;;;;;4.87;2.13;;;;;;;3.71;100.00;99815.05;1773951;80;21579;-73
2021/01/24 05:46:04;;;;;;;2.20;2.00;;;;;;;3.71;100.00;99823.07;1774086;79;21462;-73
2021/01/24 05:48:36;;;;;;;2.90;1.77;;;;;;;3.70;100.00;99818.69;1773887;80;20960;-73
2021/01/24 05:51:07;;;;;;;2.73;2.10;;;;;;;3.69;100.00;99815.67;1746944;80;21015;-71
2021/01/24 05:53:44;;;;;;;4.57;2.80;;;;;;;3.67;100.00;99814.47;1774088;80;21046;-73
2021/01/24 05:56:20;;;;;;;1.20;1.20;;;;;;;3.67;100.00;99810.95;1774152;80;21484;-72
2021/01/24 05:58:58;;;;;;;1.93;1.63;;;;;;;3.67;100.00;99812.29;1773958;80;21198;-72
2021/01/24 06:01:28;;;;;;;3.17;2.27;;;;;;;3.68;100.00;99816.64;1773971;80;21043;-72
2021/01/24 06:03:58;;;;;;;5.60;2.27;;;;;;;3.68;100.00;99814.80;1774170;80;21593;-72
2021/01/24 06:06:26;;;;;;;3.53;2.30;;;;;;;3.67;100.00;99817.14;1774024;80;21058;-72
2021/01/24 06:08:53;;;;;;;1.87;1.77;;;;;;;3.68;100.00;99820.66;1774126;80;20919;-72
2021/01/24 06:11:21;;;;;;;5.07;2.03;;;;;;;3.65;100.00;99811.08;1774070;80;21071;-73
2021/01/24 06:13:54;;;;;;;1.67;1.57;;;;;;;3.66;100.00;99820.78;1746041;80;21556;-73
2021/01/24 06:16:25;;;;;;;;;;;;;;;3.68;100.00;99812.63;1773644;80;20952;-73
2021/01/24 06:19:03;;;;;;;4.67;1.33;;;;;;;3.69;100.00;99819.19;1774098;79;20116;-72
2021/01/24 06:21:42;;;;;;;1.53;1.43;;;;;;;3.70;100.00;99827.58;1773974;80;21003;-71
2021/01/24 06:24:24;;;;;;;4.47;2.17;;;;;;;3.72;100.00;99822.94;1774180;80;21535;-72
2021/01/24 06:26:59;;;;;;;2.67;1.87;;;;;;;3.75;100.00;99831.17;1845457;76;27108;-72
2021/01/24 06:29:28;;;;;;;3.53;2.20;;;;;;;3.72;100.00;99837.65;1815389;77;21008;-72
2021/01/24 06:31:56;;;;;;;2.90;2.00;;;;;;;3.73;100.00;99829.12;1797563;77;21404;-74
2021/01/24 06:34:33;;;;;;;4.17;1.93;;;;;;;3.75;100.00;99837.39;1783328;80;21454;-73
2021/01/24 06:37:05;;;;;;;2.13;1.67;;;;;;;3.78;100.00;99829.58;1779584;80;21048;-73
2021/01/24 06:39:41;;;;;;;2.30;1.83;;;;;;;3.80;100.00;99835.64;1699081;84;21039;-72
2021/01/24 06:42:09;;;;;;;2.23;1.47;;;;;;;3.81;100.00;99838.69;1698852;83;21683;-72
2021/01/24 06:44:39;;;;;;;2.03;1.40;;;;;;;3.84;100.00;99841.57;1669695;86;21690;-72
2021/01/24 06:47:29;;;;;;;4.53;1.47;;;;;;;3.86;100.00;99832.92;1715059;83;21518;-73
2021/01/24 06:50:07;;;;;;;5.97;2.70;;;;;;;3.95;100.00;99830.81;1829435;76;38129;-72
2021/01/24 06:52:37;;;;;;;2.58;1.90;;;;;;;3.97;100.00;99844.89;1814875;79;21047;-72
2021/01/24 06:55:19;;;;;;;5.67;2.07;;;;;;;4.02;100.00;99831.97;1815441;79;21186;-72
2021/01/24 06:57:47;;;;;;;2.70;1.77;;;;;;;4.07;100.00;99844.45;1764146;81;21615;-74
2021/01/24 07:00:20;;;;;;;3.77;1.63;;;;;;;4.09;100.00;99833.59;1765070;81;21043;-72
2021/01/24 07:02:49;;;;;;;5.43;2.13;;;;;;;4.12;100.00;99834.16;1764909;80;20983;-74
2021/01/24 07:05:24;;;;;;;5.13;2.30;;;;;;;4.15;100.00;99831.23;1764947;80;21000;-73
2021/01/24 07:07:53;;;;;;;4.00;2.03;;;;;;;4.18;100.00;99837.66;1764985;81;21592;-72
2021/01/24 07:10:42;;;;;;;6.20;2.97;;;;;;;4.21;100.00;99840.54;1765010;81;21082;-72
2021/01/24 07:13:30;;;;;;;2.27;2.00;;;;;;;4.23;100.00;99835.05;1764928;79;20991;-73
2021/01/24 07:16:07;;;;;;;3.97;2.90;;;;;;;4.29;100.00;99828.67;1852178;76;27114;-72
2021/01/24 07:18:44;;;;;;;5.57;3.67;;;;;;;4.29;100.00;99835.87;1782208;80;20932;-73
2021/01/24 07:21:12;;;;;;;6.17;3.33;;;;;;;4.32;100.00;99836.44;1772136;80;21065;-72
2021/01/24 07:23:40;;;;;;;5.23;2.37;;;;;;;4.33;100.00;99831.42;1772204;81;21579;-73
2021/01/24 07:26:10;;;;;;;6.17;2.30;;;;;;;4.37;100.00;99832.00;1765806;80;21059;-74
2021/01/24 07:28:37;;;;;;;3.57;2.50;;;;;;;4.40;100.00;99829.56;1736743;82;21120;-74
2021/01/24 07:31:05;;;;;;;4.97;2.03;;;;;;;4.44;100.00;99841.68;1753755;81;20950;-73
2021/01/24 07:33:34;;;;;;;3.93;2.67;;;;;;;4.45;100.00;99826.82;1722083;83;21372;-73
2021/01/24 07:36:04;;;;;;;3.23;2.23;;;;;;;4.49;100.00;99832.25;1745026;82;21512;-72
2021/01/24 07:38:32;;;;;;;3.13;2.30;;;;;;;4.52;100.00;99825.79;1722023;83;20941;-73
2021/01/24 07:41:00;;;;;;;2.23;1.77;;;;;;;4.55;100.00;99823.68;1759702;80;21013;-72
2021/01/24 07:43:28;;;;;;;2.67;1.53;;;;;;;4.59;100.00;99829.61;1766825;81;21116;-73
2021/01/24 07:45:56;;;;;;;4.83;2.53;;;;;;;4.65;100.00;99832.22;1766722;81;21207;-73
2021/01/24 07:48:24;;;;;;;5.30;1.70;;;;;;;4.67;100.00;99841.80;1766757;81;20951;-72
2021/01/24 07:50:53;;;;;;;3.47;2.00;;;;;;;4.71;100.00;99844.58;1766926;81;21050;-72
2021/01/24 07:53:21;;;;;;;2.60;1.80;;;;;;;4.77;100.00;99842.33;1766617;81;21069;-72
2021/01/24 07:55:50;;;;;;;3.90;2.17;;;;;;;4.82;100.00;99847.63;1766767;81;21018;-73
2021/01/24 07:58:18;;;;;;;5.97;2.53;;;;;;;4.87;100.00;99842.70;1766857;81;21200;-73
2021/01/24 08:00:47;;;;;;;5.03;2.37;;;;;;;4.93;100.00;99854.69;1766715;81;21057;-73
2021/01/24 08:03:20;;;;;;;3.53;1.97;;;;;;;4.99;100.00;99855.95;1766899;81;20966;-73
2021/01/24 08:05:48;;;;;;;3.13;2.30;;;;;;;5.04;100.00;99859.06;1764079;81;21120;-73
2021/01/24 08:08:16;;;;;;;4.57;2.53;;;;;;;5.09;100.00;99848.77;1766759;81;21058;-72
2021/01/24 08:10:44;;;;;;;6.87;3.77;;;;;;;5.13;100.00;99851.05;1766672;81;21654;-73
2021/01/24 08:13:12;;;;;;;7.77;3.77;;;;;;;5.18;100.00;99853.78;1766902;81;21093;-73
2021/01/24 08:15:40;;;;;;;4.40;2.53;;;;;;;5.23;100.00;99855.55;1770753;80;21018;-72
2021/01/24 08:18:08;;;;;;;7.40;2.27;;;;;;;5.24;100.00;99851.39;1789212;79;21558;-72
2021/01/24 08:20:36;;;;;;;2.80;2.23;;;;;;;5.28;100.00;99857.31;1763298;80;21581;-71
2021/01/24 08:23:04;;;;;;;8.10;3.73;;;;;;;5.31;100.00;99855.67;1760119;81;21821;-71
2021/01/24 08:25:32;;;;;;;4.20;2.97;;;;;;;5.35;100.00;99849.53;1779419;80;21012;-76
2021/01/24 08:28:01;;;;;;;3.73;2.73;;;;;;;5.37;100.00;99851.09;1737948;80;21004;-76
2021/01/24 08:30:29;;;;;;;6.53;2.60;;;;;;;5.41;100.00;99850.32;1755587;81;21090;-77
2021/01/24 08:32:57;;;;;;;4.53;2.70;;;;;;;5.44;100.00;99852.72;1762154;80;21018;-77
2021/01/24 08:35:34;;;;;;;4.87;2.77;;;;;;;5.45;100.00;99845.02;1745950;80;21209;-74
2021/01/24 08:38:03;;;;;;;5.80;2.53;;;;;;;5.47;100.00;99836.33;1775558;80;21007;-75
2021/01/24 08:40:35;;;;;;;4.53;2.70;;;;;;;5.53;100.00;99835.77;1763262;80;20994;-77
2021/01/24 08:43:04;;;;;;;4.58;2.55;;;;;;;5.59;100.00;99843.73;1757216;80;20999;-72
2021/01/24 08:45:32;;;;;;;4.20;2.50;;;;;;;5.63;100.00;99835.73;1754542;81;21017;-74
2021/01/24 08:48:02;;;;;;;2.90;2.00;;;;;;;5.66;100.00;99830.09;1770105;80;21311;-76
2021/01/24 08:50:38;;;;;;;3.27;1.90;;;;;;;5.66;100.00;99828.24;1760745;80;21025;-78
2021/01/24 08:53:07;;;;;;;2.40;1.93;;;;;;;5.68;100.00;99822.27;1764852;80;21045;-75
2021/01/24 08:55:49;;;;;;;4.27;2.13;;;;;;;5.67;100.00;99817.87;1756790;81;21037;-73
2021/01/24 08:58:27;;;;;;;3.27;2.40;;;;;;;5.68;100.00;99820.92;1754716;81;21013;-74
2021/01/24 09:01:04;;;;;;;2.60;1.73;;;;;;;5.71;100.00;99821.11;1757001;81;21353;-75
2021/01/24 09:03:32;;;;;;;1.17;1.07;;;;;;;5.73;100.00;99809.73;1754640;81;21615;-75
2021/01/24 09:06:21;;;;;;;2.47;2.00;;;;;;;5.75;100.00;99814.45;1756017;81;21001;-75
2021/01/24 09:08:52;;;;;;;2.53;2.10;;;;;;;5.76;100.00;99810.80;1754590;81;21578;-75
2021/01/24 09:11:20;;;;;;;2.57;1.90;;;;;;;5.79;100.00;99804.28;1756145;80;21687;-75
2021/01/24 09:13:48;;;;;;;3.43;2.03;;;;;;;5.81;100.00;99807.69;1754484;81;21243;-75
2021/01/24 09:16:21;;;;;;;3.27;2.00;;;;;;;5.83;100.00;99805.70;1758748;80;21016;-76
2021/01/24 09:18:49;;;;;;;3.12;2.33;;;;;;;5.85;100.00;99800.52;1744245;81;21020;-76
2021/01/24 09:21:17;;;;;;;3.33;2.00;;;;;;;5.87;100.00;99785.63;1760123;81;21922;-75
2021/01/24 09:23:46;;;;;;;5.03;1.93;;;;;;;5.90;100.00;99794.73;1758502;81;21037;-75
2021/01/24 09:26:13;;;;;;;5.00;2.30;;;;;;;5.91;100.00;99778.95;1757904;81;21800;-74
2021/01/24 09:28:41;;;;;;;3.23;1.77;;;;;;;5.96;100.00;99787.95;1766595;81;21013;-74
2021/01/24 09:31:09;;;;;;;4.33;2.67;;;;;;;6.02;100.00;99792.71;1773545;79;20941;-75
2021/01/24 09:33:37;;;;;;;3.00;2.30;;;;;;;6.07;100.00;99782.38;1797971;79;21554;-75
2021/01/24 09:36:05;;;;;;;4.33;2.27;;;;;;;6.14;100.00;99783.98;1785261;79;21056;-75
2021/01/24 09:38:33;;;;;;;5.63;2.57;;;;;;;6.18;100.00;99773.28;1766575;81;21643;-75
2021/01/24 09:41:01;;;;;;;2.77;2.27;;;;;;;6.22;100.00;99776.04;1766449;81;21032;-76
2021/01/24 09:43:29;;;;;;;6.53;2.47;;;;;;;6.25;100.00;99775.72;1766461;81;21115;-76
2021/01/24 09:45:57;;;;;;;5.73;2.53;;;;;;;6.30;100.00;99764.54;1766562;81;21021;-76
2021/01/24 09:48:25;;;;;;;5.83;2.53;;;;;;;6.31;100.00;99763.55;1766669;81;21502;-76
2021/01/24 09:50:54;;;;;;;3.43;2.80;;;;;;;6.36;100.00;99771.50;1766561;81;21203;-76
2021/01/24 09:53:22;;;;;;;6.23;3.60;;;;;;;6.38;100.00;99759.27;1766666;81;21116;-76
2021/01/24 09:55:49;;;;;;;5.03;2.37;;;;;;;6.40;100.00;99755.42;1766468;81;21009;-76
2021/01/24 09:58:17;;;;;;;4.00;2.10;;;;;;;6.43;100.00;99759.66;1766564;81;21060;-75
2021/01/24 10:00:45;;;;;;;12.60;3.90;;;;;;;6.46;100.00;99758.00;1766766;80;20938;-75
2021/01/24 10:03:13;;;;;;;5.83;2.87;;;;;;;6.49;100.00;99748.30;1766631;81;21370;-74
2021/01/24 10:05:41;;;;;;;2.20;2.00;;;;;;;6.50;100.00;99751.34;1766563;81;21052;-74
2021/01/24 10:08:09;;;;;;;6.37;3.70;;;;;;;6.50;100.00;99747.32;1766317;81;20985;-76
2021/01/24 10:10:37;;;;;;;6.57;3.43;;;;;;;6.50;100.00;99746.45;1766550;81;20926;-76
2021/01/24 10:13:05;;;;;;;5.87;3.40;;;;;;;6.50;100.00;99743.77;1766529;81;21033;-75
2021/01/24 10:15:33;;;;;;;2.77;1.90;;;;;;;6.50;100.00;99751.34;1763916;81;21664;-75
2021/01/24 10:18:01;;;;;;;3.67;2.30;;;;;;;6.48;100.00;99756.51;1760733;80;21550;-76
2021/01/24 10:20:29;;;;;;;2.80;1.97;;;;;;;6.45;100.00;99753.13;1821333;78;20992;-74
2021/01/24 10:22:56;;;;;;;2.60;2.40;;;;;;;6.46;100.00;99751.28;1821294;78;21732;-74
2021/01/24 10:25:25;;;;;;;2.53;2.03;;;;;;;6.45;100.00;99745.08;1821388;78;20961;-74
2021/01/24 10:27:52;;;;;;;5.73;2.30;;;;;;;6.45;100.00;99734.84;1821383;78;21895;-74
2021/01/24 10:30:21;;;;;;;3.90;2.33;;;;;;;6.41;100.00;99735.64;1821248;78;20998;-74
2021/01/24 10:32:50;;;;;;;3.13;2.03;;;;;;;6.38;100.00;99738.62;1821410;78;21038;-75
2021/01/24 10:35:18;;;;;;;3.07;1.53;;;;;;;6.35;100.00;99726.00;1821434;78;21014;-75
2021/01/24 10:37:46;;;;;;;5.77;2.97;;;;;;;6.32;100.00;99731.66;1821545;78;20931;-74
2021/01/24 10:40:14;;;;;;;4.93;1.93;;;;;;;6.28;100.00;99715.01;1821631;78;21613;-74
2021/01/24 10:42:42;;;;;;;2.50;2.13;;;;;;;6.25;100.00;99718.86;1821322;78;20962;-75
2021/01/24 10:45:11;;;;;;;4.30;2.27;;;;;;;6.21;100.00;99717.45;1782482;80;20994;-74
2021/01/24 10:47:39;;;;;;;2.23;1.77;;;;;;;6.21;100.00;99716.61;1821373;78;21536;-76
2021/01/24 10:50:09;;;;;;;3.43;2.00;;;;;;;6.20;100.00;99711.75;1782366;80;21048;-75
2021/01/24 10:52:37;;;;;;;15.57;4.60;;;;;;;6.21;100.00;99704.53;1821342;78;21135;-75
2021/01/24 10:55:07;;;;;;;13.77;4.70;;;;;;;6.20;100.00;99700.17;1782406;80;21021;-75
2021/01/24 10:57:35;;;;;;;7.50;2.80;;;;;;;6.22;100.00;99702.20;1821598;78;21465;-75
2021/01/24 11:00:06;;;;;;;4.27;2.63;;;;;;;6.22;100.00;99687.44;1782505;80;20990;-75
2021/01/24 11:02:34;;;;;;;4.10;2.53;;;;;;;6.23;100.00;99683.73;1821606;78;20911;-74
2021/01/24 11:05:03;;;;;;;2.83;2.27;;;;;;;6.25;100.00;99684.42;1821295;78;21794;-75
2021/01/24 11:07:32;;;;;;;4.83;2.97;;;;;;;6.27;100.00;99682.46;1821294;78;20955;-74
2021/01/24 11:10:01;;;;;;;3.03;2.27;;;;;;;6.26;100.00;99682.94;1782421;80;21451;-76
2021/01/24 11:12:29;;;;;;;4.93;2.07;;;;;;;6.29;100.00;99671.06;1821333;78;20951;-75
2021/01/24 11:14:57;;;;;;;3.87;2.13;;;;;;;6.31;100.00;99679.81;1821103;78;21022;-75
2021/01/24 11:17:25;;;;;;;5.73;2.33;;;;;;;6.31;100.00;99669.06;1821001;78;22145;-74
2021/01/24 11:19:54;;;;;;;2.00;1.60;;;;;;;6.34;100.00;99675.48;1820858;78;20951;-75
2021/01/24 11:22:22;;;;;;;3.90;2.10;;;;;;;6.36;100.00;99678.02;1820929;78;21576;-74
2021/01/24 11:24:50;;;;;;;5.70;2.60;;;;;;;6.38;100.00;99672.83;1820868;78;20978;-75
2021/01/24 11:27:18;;;;;;;3.57;1.93;;;;;;;6.41;100.00;99670.32;1826486;78;20993;-74
2021/01/24 11:29:46;;;;;;;3.90;1.90;;;;;;;6.42;100.00;99665.31;1827587;78;21901;-75
2021/01/24 11:32:14;;;;;;;3.40;1.77;;;;;;;6.45;100.00;99664.50;1823506;78;21475;-74
2021/01/24 11:34:42;;;;;;;5.13;2.23;;;;;;;6.51;100.00;99664.38;1821289;78;20961;-75
2021/01/24 11:37:11;;;;;;;2.10;1.53;;;;;;;6.56;100.00;99662.58;1821295;78;20993;-74
2021/01/24 11:39:38;;;;;;;9.20;3.17;;;;;;;6.63;100.00;99665.00;1821319;78;20989;-74
2021/01/24 11:42:07;;;;;;;9.20;3.33;;;;;;;6.68;100.00;99658.66;1821455;77;21854;-75
2021/01/24 11:44:35;;;;;;;5.77;2.70;;;;;;;6.72;100.00;99654.66;1821376;78;20944;-75
2021/01/24 11:47:03;;;;;;;6.47;2.40;;;;;;;6.75;100.00;99657.04;1821447;78;20984;-74